CheckWX is a tool to help pilots better visualize weather data.  It is not intended as a substitute for an official pre-flight weather briefing.

07:12:37 UTC

KRDU TAF
Raleigh-Durham International Airport
Morrisville, North Carolina, USA
KRDU 230539Z 2306/2406 22012KT P6SM FEW250 FM231500 24006KT P6SM FEW250 FM240000 27004KT P6SM BKN060

Sep-23@
06:00 UTC

Sep-23 @ 06:00 UTC

Sep-23@
15:00 UTC

Sep-23 @ 15:00 UTC

KRDU 230539Z 2306/2406 22012KT P6SM FEW250
Wind
  • 220° at 12 KTS
Cloud Levels
  • Few at 25,000' AGL

Sep-23@
15:00 UTC

Sep-23 @ 15:00 UTC

Sep-24@
00:00 UTC

Sep-24 @ 00:00 UTC

FM231500 24006KT P6SM FEW250

From

From Standard forecast or significant change

Wind
  • 240° at 6 KTS
Cloud Levels
  • Few at 25,000' AGL

Sep-24@
00:00 UTC

Sep-24 @ 00:00 UTC

Sep-24@
06:00 UTC

Sep-24 @ 06:00 UTC

FM240000 27004KT P6SM BKN060

From

From Standard forecast or significant change

Wind
  • 270° at 4 KTS
Cloud Levels
  • Broken at 6,000' AGL